createdAt,value
2018-08-17T00:00:36.835Z,4.53
2018-08-17T00:03:05.878Z,4.43
2018-08-17T00:05:34.812Z,4.33
2018-08-17T00:08:03.679Z,4.37
2018-08-17T00:10:32.552Z,4.33
2018-08-17T00:13:01.375Z,4.20
2018-08-17T00:15:30.328Z,3.97
2018-08-17T00:17:59.272Z,4.43
2018-08-17T00:20:28.149Z,4.00
2018-08-17T00:22:57.020Z,5.00
2018-08-17T00:25:25.881Z,4.67
2018-08-17T00:27:54.750Z,4.10
2018-08-17T00:30:23.676Z,4.00
2018-08-17T00:32:52.479Z,4.40
2018-08-17T00:35:21.867Z,4.17
2018-08-17T00:37:50.796Z,5.67
2018-08-17T00:40:19.682Z,4.63
2018-08-17T00:42:48.532Z,4.40
2018-08-17T00:45:17.383Z,4.00
2018-08-17T00:47:46.202Z,4.50
2018-08-17T00:50:15.052Z,3.67
2018-08-17T00:52:43.900Z,4.00
2018-08-17T00:55:12.736Z,4.70
2018-08-17T00:57:41.588Z,4.30
2018-08-17T01:00:10.481Z,3.57
2018-08-17T01:02:39.460Z,3.57
2018-08-17T01:05:08.335Z,3.93
2018-08-17T01:07:37.905Z,4.00
2018-08-17T01:10:06.907Z,4.00
2018-08-17T01:12:35.835Z,3.77
2018-08-17T01:15:05.129Z,3.80
2018-08-17T01:17:33.984Z,3.50
2018-08-17T01:20:02.857Z,4.50
2018-08-17T01:22:31.710Z,4.30
2018-08-17T01:25:00.585Z,3.83
2018-08-17T01:27:29.480Z,3.50
2018-08-17T01:29:58.778Z,3.50
2018-08-17T01:32:27.725Z,5.03
2018-08-17T01:34:56.550Z,4.20
2018-08-17T01:37:26.583Z,4.47
2018-08-17T01:39:56.436Z,3.97
2018-08-17T01:42:27.012Z,3.87
2018-08-17T01:44:57.000Z,4.57
2018-08-17T01:47:25.851Z,4.37
2018-08-17T01:49:54.697Z,4.43
2018-08-17T01:52:24.888Z,3.90
2018-08-17T01:54:53.817Z,4.67
2018-08-17T01:57:22.687Z,4.60
2018-08-17T01:59:51.515Z,4.50
2018-08-17T02:02:20.335Z,4.53
2018-08-17T02:04:49.170Z,4.10
2018-08-17T02:07:18.052Z,4.67
2018-08-17T02:09:46.912Z,4.07
2018-08-17T02:12:16.029Z,4.53
2018-08-17T02:14:44.922Z,4.43
2018-08-17T02:17:13.797Z,4.90
2018-08-17T02:19:42.640Z,4.00
2018-08-17T02:22:11.526Z,4.53
2018-08-17T02:24:40.389Z,4.93
2018-08-17T02:27:09.309Z,5.37
2018-08-17T02:29:38.152Z,4.80
2018-08-17T02:32:07.101Z,4.40
2018-08-17T02:34:36.166Z,4.90
2018-08-17T02:37:05.109Z,4.80
2018-08-17T02:39:34.137Z,5.80
2018-08-17T02:42:02.939Z,4.70
2018-08-17T02:44:31.859Z,7.40
2018-08-17T02:47:00.748Z,5.90
2018-08-17T02:49:29.615Z,5.10
2018-08-17T02:51:58.490Z,5.10
2018-08-17T02:54:27.366Z,4.50
2018-08-17T02:56:56.374Z,5.60
2018-08-17T02:59:25.259Z,6.90
2018-08-17T03:01:54.159Z,5.80
2018-08-17T03:04:23.056Z,4.90
2018-08-17T03:06:51.882Z,4.50
2018-08-17T03:09:20.752Z,5.20
2018-08-17T03:11:49.588Z,4.63
2018-08-17T03:14:18.483Z,5.17
2018-08-17T03:16:47.309Z,4.67
2018-08-17T03:19:16.123Z,4.87
2018-08-17T03:21:44.952Z,4.60
2018-08-17T03:24:13.746Z,4.60
2018-08-17T03:26:42.612Z,4.33
2018-08-17T03:29:11.452Z,5.63
2018-08-17T03:31:40.336Z,5.20
2018-08-17T03:34:09.192Z,5.30
2018-08-17T03:36:38.080Z,5.03
2018-08-17T03:39:09.386Z,5.10
2018-08-17T03:41:38.415Z,5.60
2018-08-17T03:44:07.554Z,5.20
2018-08-17T03:46:36.465Z,5.30
2018-08-17T03:49:06.088Z,4.77
2018-08-17T03:51:34.875Z,5.30
2018-08-17T03:54:03.781Z,4.70
2018-08-17T03:56:32.644Z,4.73
2018-08-17T03:59:01.480Z,5.00
2018-08-17T04:01:30.397Z,5.73
2018-08-17T04:03:59.276Z,5.00
2018-08-17T04:06:28.120Z,4.77
2018-08-17T04:08:57.004Z,5.40
2018-08-17T04:11:25.871Z,5.47
2018-08-17T04:13:54.730Z,4.77
2018-08-17T04:16:23.556Z,5.10
2018-08-17T04:18:57.014Z,4.70
2018-08-17T04:21:25.860Z,5.20
2018-08-17T04:23:55.039Z,5.00
2018-08-17T04:26:23.924Z,5.53
2018-08-17T04:28:52.804Z,6.30
2018-08-17T04:31:21.845Z,5.50
2018-08-17T04:33:50.768Z,5.90
2018-08-17T04:36:20.007Z,5.80
2018-08-17T04:38:49.642Z,5.60
2018-08-17T04:41:18.572Z,5.47
2018-08-17T04:43:48.314Z,5.80
2018-08-17T04:46:17.169Z,4.80
2018-08-17T04:48:46.010Z,5.00
2018-08-17T04:51:14.896Z,4.70
2018-08-17T04:53:43.696Z,5.30
2018-08-17T04:56:12.526Z,4.90
2018-08-17T04:58:41.332Z,4.13
2018-08-17T05:01:10.228Z,5.03
2018-08-17T05:03:39.060Z,4.33
2018-08-17T05:06:07.936Z,4.80
2018-08-17T05:08:36.787Z,4.30
2018-08-17T05:11:05.737Z,4.27
2018-08-17T05:13:34.761Z,4.70
2018-08-17T05:16:03.599Z,3.77
2018-08-17T05:18:32.461Z,4.87
2018-08-17T05:21:01.293Z,4.60
2018-08-17T05:23:30.275Z,4.33
2018-08-17T05:25:59.121Z,5.00
2018-08-17T05:28:28.002Z,3.80
2018-08-17T05:30:56.850Z,4.70
2018-08-17T05:33:25.900Z,4.30
2018-08-17T05:35:54.752Z,5.07
2018-08-17T05:38:23.608Z,4.17
2018-08-17T05:40:52.507Z,4.77
2018-08-17T05:43:21.492Z,4.23
2018-08-17T05:45:50.388Z,4.37
2018-08-17T05:48:19.428Z,4.80
2018-08-17T05:50:48.276Z,4.13
2018-08-17T05:53:17.231Z,3.90
2018-08-17T05:55:47.156Z,3.90
2018-08-17T05:58:16.156Z,4.50
2018-08-17T06:00:45.000Z,3.90
2018-08-17T06:03:13.821Z,4.40
2018-08-17T06:05:42.694Z,4.13
2018-08-17T06:08:11.625Z,4.40
2018-08-17T06:10:40.480Z,4.17
2018-08-17T06:13:09.321Z,3.43
2018-08-17T06:15:38.155Z,4.00
2018-08-17T06:18:07.011Z,4.00
2018-08-17T06:20:35.839Z,4.27
2018-08-17T06:23:04.718Z,4.40
2018-08-17T06:25:33.640Z,4.43
2018-08-17T06:28:02.528Z,4.80
2018-08-17T06:30:31.428Z,3.90
2018-08-17T06:33:00.228Z,4.53
2018-08-17T06:35:29.059Z,4.63
2018-08-17T06:37:57.961Z,4.20
2018-08-17T06:40:26.832Z,4.37
2018-08-17T06:42:55.717Z,4.77
2018-08-17T06:45:24.564Z,4.23
2018-08-17T06:47:53.408Z,3.73
2018-08-17T06:50:22.248Z,4.10
2018-08-17T06:52:51.089Z,3.70
2018-08-17T06:55:19.932Z,3.50
2018-08-17T06:57:48.759Z,3.40
2018-08-17T07:00:17.883Z,4.03
2018-08-17T07:02:47.294Z,3.93
2018-08-17T07:05:16.422Z,4.03
2018-08-17T07:07:45.336Z,4.07
2018-08-17T07:10:14.774Z,4.40
2018-08-17T07:12:43.922Z,4.00
2018-08-17T07:15:12.955Z,3.73
2018-08-17T07:17:41.988Z,3.67
2018-08-17T07:20:12.469Z,3.60
2018-08-17T07:22:42.049Z,3.47
2018-08-17T07:25:11.017Z,3.77
2018-08-17T07:27:39.962Z,4.13
2018-08-17T07:30:09.821Z,4.40
2018-08-17T07:32:38.706Z,4.13
2018-08-17T07:35:09.636Z,3.97
2018-08-17T07:37:38.544Z,3.47
2018-08-17T07:40:07.939Z,3.80
2018-08-17T07:42:36.813Z,4.43
2018-08-17T07:45:06.285Z,3.93
2018-08-17T07:47:35.210Z,4.23
2018-08-17T07:50:04.200Z,3.37
2018-08-17T07:52:33.060Z,3.13
2018-08-17T07:55:02.400Z,3.57
2018-08-17T07:57:31.297Z,3.77
2018-08-17T08:00:00.130Z,3.70
2018-08-17T08:02:29.053Z,4.30
2018-08-17T08:04:57.872Z,3.20
2018-08-17T08:07:26.727Z,3.40
2018-08-17T08:09:55.538Z,4.50
2018-08-17T08:12:24.358Z,5.10
2018-08-17T08:14:53.204Z,4.13
2018-08-17T08:17:22.060Z,3.30
2018-08-17T08:20:08.368Z,3.40
2018-08-17T08:22:37.220Z,3.70
2018-08-17T08:25:06.062Z,3.40
2018-08-17T08:27:34.875Z,3.30
2018-08-17T08:30:03.712Z,3.93
2018-08-17T08:32:32.555Z,3.67
2018-08-17T08:35:01.422Z,4.37
2018-08-17T08:37:30.327Z,3.93
2018-08-17T08:39:59.239Z,3.60
2018-08-17T08:42:28.487Z,4.13
2018-08-17T08:44:57.360Z,3.73
2018-08-17T08:47:26.208Z,3.13
2018-08-17T08:49:55.059Z,4.80
2018-08-17T08:52:23.955Z,3.90
2018-08-17T08:54:52.790Z,3.63
2018-08-17T08:57:21.701Z,3.37
2018-08-17T08:59:51.483Z,2.77
2018-08-17T09:02:20.340Z,3.37
2018-08-17T09:04:49.241Z,3.60
2018-08-17T09:07:18.099Z,4.27
2018-08-17T09:09:47.023Z,4.00
2018-08-17T09:12:15.863Z,3.60
2018-08-17T09:14:44.712Z,3.17
2018-08-17T09:17:13.546Z,3.50
2018-08-17T09:19:42.405Z,3.80
2018-08-17T09:22:11.317Z,3.33
2018-08-17T09:24:40.465Z,3.13
2018-08-17T09:27:09.330Z,3.63
2018-08-17T09:29:38.239Z,3.50
2018-08-17T09:32:07.129Z,3.40
2018-08-17T09:34:35.987Z,3.40
2018-08-17T09:37:04.899Z,3.40
2018-08-17T09:39:34.657Z,3.23
2018-08-17T09:42:03.571Z,3.73
2018-08-17T09:44:32.388Z,3.10
2018-08-17T09:47:01.946Z,3.97
2018-08-17T09:49:30.796Z,2.97
2018-08-17T09:52:02.053Z,4.10
2018-08-17T09:54:30.912Z,3.17
2018-08-17T09:56:59.760Z,3.57
2018-08-17T09:59:28.596Z,3.37
2018-08-17T10:02:02.902Z,3.40
2018-08-17T10:04:37.119Z,3.10
2018-08-17T10:07:11.424Z,2.80
2018-08-17T10:09:45.715Z,3.50
2018-08-17T10:12:14.583Z,3.00
2018-08-17T10:14:43.452Z,3.03
2018-08-17T10:17:12.330Z,2.97
2018-08-17T10:19:41.183Z,2.63
2018-08-17T10:22:10.221Z,2.83
2018-08-17T10:24:38.873Z,2.93
2018-08-17T10:27:08.060Z,2.70
2018-08-17T10:29:39.121Z,3.40
2018-08-17T10:32:08.273Z,2.87
2018-08-17T10:34:37.120Z,2.70
2018-08-17T10:37:05.972Z,2.90
2018-08-17T10:39:34.857Z,2.93
2018-08-17T10:42:03.688Z,3.27
2018-08-17T10:44:32.503Z,2.60
2018-08-17T10:47:01.417Z,3.17
2018-08-17T10:49:30.244Z,2.80
2018-08-17T10:51:59.620Z,3.00
2018-08-17T10:54:28.455Z,2.97
2018-08-17T10:56:57.308Z,2.70
2018-08-17T10:59:26.173Z,2.97
2018-08-17T11:01:55.067Z,2.80
2018-08-17T11:04:23.867Z,3.00
2018-08-17T11:06:52.670Z,2.50
2018-08-17T11:09:21.560Z,2.77
2018-08-17T11:11:50.388Z,2.73
2018-08-17T11:14:19.232Z,2.63
2018-08-17T11:16:48.089Z,2.50
2018-08-17T11:19:16.984Z,3.00
2018-08-17T11:21:45.831Z,2.77
2018-08-17T11:24:14.757Z,3.07
2018-08-17T11:26:43.593Z,2.53
2018-08-17T11:29:12.426Z,2.33
2018-08-17T11:31:41.148Z,2.50
2018-08-17T11:34:09.851Z,2.80
2018-08-17T11:36:38.553Z,3.13
2018-08-17T11:39:07.526Z,2.50
2018-08-17T11:41:36.278Z,2.30
2018-08-17T11:44:08.394Z,2.33
2018-08-17T11:46:37.112Z,2.67
2018-08-17T11:49:05.803Z,2.10
2018-08-17T11:51:38.419Z,2.20
2018-08-17T11:54:09.526Z,2.50
2018-08-17T11:56:38.351Z,2.27
2018-08-17T11:59:07.284Z,1.90
2018-08-17T12:01:36.280Z,2.47
2018-08-17T12:04:05.144Z,1.87
2018-08-17T12:06:33.972Z,2.50
2018-08-17T12:09:02.803Z,2.13
2018-08-17T12:11:31.607Z,1.90
2018-08-17T12:14:00.536Z,2.10
2018-08-17T12:16:29.406Z,1.97
2018-08-17T12:18:58.233Z,2.13
2018-08-17T12:21:27.077Z,1.93
2018-08-17T12:23:55.888Z,1.90
2018-08-17T12:26:24.709Z,1.80
2018-08-17T12:28:53.605Z,1.60
2018-08-17T12:31:22.466Z,1.97
2018-08-17T12:33:51.300Z,2.30
2018-08-17T12:36:20.095Z,2.13
2018-08-17T12:38:48.931Z,2.00
2018-08-17T12:41:17.789Z,2.50
2018-08-17T12:43:46.646Z,2.00
2018-08-17T12:46:15.508Z,2.23
2018-08-17T12:48:44.365Z,2.40
2018-08-17T12:51:13.674Z,2.30
2018-08-17T12:53:42.589Z,2.43
2018-08-17T12:56:11.660Z,2.40
2018-08-17T12:58:40.576Z,2.20
2018-08-17T13:01:09.533Z,1.70
2018-08-17T13:03:38.409Z,2.40
2018-08-17T13:06:07.199Z,2.27
2018-08-17T13:08:36.052Z,2.00
2018-08-17T13:11:04.955Z,2.27
2018-08-17T13:13:36.849Z,2.47
2018-08-17T13:16:07.037Z,2.13
2018-08-17T13:18:37.847Z,2.20
2018-08-17T13:21:07.076Z,2.05
2018-08-17T13:23:35.897Z,1.75
2018-08-17T13:26:04.723Z,2.55
2018-08-17T13:28:33.581Z,2.22
2018-08-17T13:31:02.449Z,1.80
2018-08-17T13:33:31.254Z,1.75
2018-08-17T13:36:00.271Z,2.15
2018-08-17T13:38:29.155Z,1.90
2018-08-17T13:40:57.998Z,1.90
2018-08-17T13:43:26.879Z,2.00
2018-08-17T13:45:55.791Z,1.90
2018-08-17T13:48:24.675Z,1.70
2018-08-17T13:50:53.532Z,1.90
2018-08-17T13:53:22.467Z,1.70
2018-08-17T13:55:51.320Z,1.65
2018-08-17T13:58:20.132Z,1.45
2018-08-17T14:00:49.267Z,1.60
2018-08-17T14:03:18.120Z,1.82
2018-08-17T14:05:47.021Z,1.67
2018-08-17T14:08:15.967Z,1.62
2018-08-17T14:10:44.822Z,1.80
2018-08-17T14:13:14.141Z,1.60
2018-08-17T14:15:43.106Z,1.70
2018-08-17T14:18:12.055Z,1.77
2018-08-17T14:20:42.456Z,1.90
2018-08-17T14:23:11.284Z,1.57
2018-08-17T14:25:40.165Z,1.83
2018-08-17T14:28:08.958Z,1.90
2018-08-17T14:30:37.851Z,2.23
2018-08-17T14:33:06.844Z,1.90
2018-08-17T14:35:42.359Z,1.80
2018-08-17T14:38:11.312Z,1.90
2018-08-17T14:40:40.169Z,2.12
2018-08-17T14:43:09.055Z,1.70
2018-08-17T14:45:37.948Z,1.80
2018-08-17T14:48:07.108Z,1.77
2018-08-17T14:50:36.072Z,1.90
2018-08-17T14:53:04.950Z,1.80
2018-08-17T14:55:33.842Z,2.10
2018-08-17T14:58:02.713Z,2.60
2018-08-17T15:00:32.741Z,2.17
2018-08-17T15:03:01.575Z,2.50
2018-08-17T15:05:30.510Z,2.10
2018-08-17T15:07:59.355Z,1.87
2018-08-17T15:10:28.253Z,1.93
2018-08-17T15:12:57.168Z,2.03
2018-08-17T15:15:26.004Z,2.27
2018-08-17T15:17:54.881Z,2.10
2018-08-17T15:20:23.947Z,1.97
2018-08-17T15:22:52.791Z,2.10
2018-08-17T15:25:21.631Z,2.10
2018-08-17T15:27:50.486Z,2.23
2018-08-17T15:30:19.378Z,2.20
2018-08-17T15:32:48.276Z,2.33
2018-08-17T15:35:17.220Z,1.87
2018-08-17T15:37:46.211Z,1.97
2018-08-17T15:40:15.292Z,2.20
2018-08-17T15:42:44.307Z,2.47
2018-08-17T15:45:13.413Z,2.13
2018-08-17T15:47:42.331Z,2.87
2018-08-17T15:50:14.520Z,2.05
2018-08-17T15:52:43.802Z,2.30
2018-08-17T15:55:12.867Z,2.92
2018-08-17T15:57:41.788Z,2.57
2018-08-17T16:00:14.547Z,2.52
2018-08-17T16:02:43.535Z,2.50
2018-08-17T16:05:12.431Z,2.40
2018-08-17T16:07:42.913Z,3.63
2018-08-17T16:10:14.798Z,2.70
2018-08-17T16:12:43.764Z,2.77
2018-08-17T16:15:12.584Z,2.60
2018-08-17T16:17:41.527Z,2.90
2018-08-17T16:20:11.860Z,3.03
2018-08-17T16:22:41.474Z,2.53
2018-08-17T16:25:11.255Z,3.50
2018-08-17T16:27:40.651Z,3.47
2018-08-17T16:30:12.142Z,3.40
2018-08-17T16:32:41.264Z,4.10
2018-08-17T16:35:10.898Z,3.30
2018-08-17T16:37:46.258Z,3.60
2018-08-17T16:40:15.343Z,3.83
2018-08-17T16:42:44.333Z,3.77
2018-08-17T16:45:13.228Z,5.07
2018-08-17T16:47:42.034Z,4.30
2018-08-17T16:50:10.912Z,4.87
2018-08-17T16:52:40.074Z,4.37
2018-08-17T16:55:08.995Z,4.43
2018-08-17T16:57:38.084Z,5.07
2018-08-17T17:00:09.139Z,4.67
2018-08-17T17:02:38.160Z,4.83
2018-08-17T17:05:07.825Z,6.43
2018-08-17T17:07:36.744Z,6.10
2018-08-17T17:10:08.644Z,4.23
2018-08-17T17:12:37.485Z,4.90
2018-08-17T17:15:21.373Z,5.03
2018-08-17T17:17:57.484Z,4.90
2018-08-17T17:20:30.103Z,6.43
2018-08-17T17:22:59.013Z,6.60
2018-08-17T17:25:27.878Z,6.53
2018-08-17T17:27:56.795Z,6.20
2018-08-17T17:30:33.963Z,6.40
2018-08-17T17:33:02.843Z,5.90
2018-08-17T17:35:31.710Z,6.50
2018-08-17T17:38:00.568Z,6.10
2018-08-17T17:40:30.121Z,6.33
2018-08-17T17:42:58.991Z,7.40
2018-08-17T17:45:28.203Z,5.97
2018-08-17T17:47:57.040Z,6.60
2018-08-17T17:50:25.934Z,6.80
2018-08-17T17:52:54.916Z,6.97
2018-08-17T17:55:24.369Z,6.40
2018-08-17T17:57:54.380Z,5.70
2018-08-17T18:00:23.269Z,6.43
2018-08-17T18:02:52.128Z,6.20
2018-08-17T18:05:20.993Z,5.90
2018-08-17T18:07:50.619Z,8.43
2018-08-17T18:10:20.905Z,8.23
2018-08-17T18:12:50.081Z,5.77
2018-08-17T18:15:18.950Z,6.50
2018-08-17T18:17:47.789Z,5.57
2018-08-17T18:20:16.657Z,5.90
2018-08-17T18:22:45.471Z,6.00
2018-08-17T18:25:18.288Z,6.80
2018-08-17T18:27:48.195Z,5.67
2018-08-17T18:30:17.075Z,5.93
2018-08-17T18:32:46.412Z,6.47
2018-08-17T18:35:15.323Z,6.30
2018-08-17T18:37:44.204Z,6.13
2018-08-17T18:40:13.166Z,5.73
2018-08-17T18:42:42.039Z,5.73
2018-08-17T18:45:10.920Z,5.47
2018-08-17T18:47:39.792Z,5.00
2018-08-17T18:50:08.993Z,6.10
2018-08-17T18:52:37.816Z,4.77
2018-08-17T18:55:06.640Z,5.80
2018-08-17T18:57:35.452Z,6.30
2018-08-17T19:00:07.875Z,6.47
2018-08-17T19:02:36.720Z,6.97
2018-08-17T19:05:05.931Z,5.50
2018-08-17T19:07:34.954Z,5.27
2018-08-17T19:10:03.859Z,5.13
2018-08-17T19:12:32.773Z,6.00
2018-08-17T19:15:01.622Z,5.60
2018-08-17T19:17:33.888Z,5.07
2018-08-17T19:20:02.747Z,6.50
2018-08-17T19:22:38.811Z,5.23
2018-08-17T19:25:09.668Z,4.70
2018-08-17T19:27:39.492Z,5.37
2018-08-17T19:30:22.568Z,5.10
2018-08-17T19:32:52.698Z,5.17
2018-08-17T19:35:21.582Z,4.60
2018-08-17T19:37:51.187Z,6.50
2018-08-17T19:40:20.663Z,4.20
2018-08-17T19:42:49.716Z,5.40
2018-08-17T19:45:18.959Z,5.37
2018-08-17T19:47:47.798Z,5.20
2018-08-17T19:50:16.631Z,4.13
2018-08-17T19:52:45.564Z,6.90
2018-08-17T19:55:14.526Z,6.10
2018-08-17T19:57:43.338Z,5.83
2018-08-17T20:00:12.918Z,6.47
2018-08-17T20:02:42.136Z,6.00
2018-08-17T20:05:11.488Z,6.37
2018-08-17T20:07:40.579Z,5.00
2018-08-17T20:10:10.902Z,5.13
2018-08-17T20:12:39.843Z,5.70
2018-08-17T20:15:09.097Z,4.93
2018-08-17T20:17:38.561Z,4.40
2018-08-17T20:20:10.008Z,6.07
2018-08-17T20:22:38.852Z,5.13
2018-08-17T20:25:12.851Z,5.90
2018-08-17T20:27:41.714Z,4.80
2018-08-17T20:30:28.065Z,4.33
2018-08-17T20:32:57.601Z,4.63
2018-08-17T20:35:26.458Z,4.73
2018-08-17T20:37:55.274Z,3.70
2018-08-17T20:40:24.148Z,6.70
2018-08-17T20:42:53.041Z,8.20
2018-08-17T20:45:25.930Z,6.80
2018-08-17T20:47:54.865Z,4.57
2018-08-17T20:50:23.705Z,3.90
2018-08-17T20:52:58.745Z,4.97
2018-08-17T20:55:27.787Z,9.90
2018-08-17T20:57:57.414Z,4.63
2018-08-17T21:00:28.390Z,6.70
2018-08-17T21:02:57.703Z,8.07
2018-08-17T21:05:27.008Z,6.80
2018-08-17T21:07:56.201Z,6.77
2018-08-17T21:10:25.436Z,4.83
2018-08-17T21:12:54.698Z,4.83
2018-08-17T21:15:24.000Z,3.80
2018-08-17T21:17:53.401Z,5.07
2018-08-17T21:20:22.596Z,6.23
2018-08-17T21:22:51.875Z,4.97
2018-08-17T21:25:21.127Z,4.60
2018-08-17T21:27:50.044Z,5.60
2018-08-17T21:30:18.941Z,4.40
2018-08-17T21:32:47.862Z,6.00
2018-08-17T21:35:16.736Z,4.50
2018-08-17T21:37:45.625Z,7.07
2018-08-17T21:40:19.537Z,5.17
2018-08-17T21:42:48.460Z,7.50
2018-08-17T21:45:17.365Z,4.77
2018-08-17T21:47:46.353Z,4.67
2018-08-17T21:50:16.443Z,6.33
2018-08-17T21:52:45.867Z,5.10
2018-08-17T21:55:15.186Z,4.40
2018-08-17T21:57:44.561Z,6.07
2018-08-17T22:00:26.442Z,5.80
2018-08-17T22:02:55.321Z,4.53
2018-08-17T22:05:28.438Z,5.27
2018-08-17T22:07:57.644Z,4.10
2018-08-17T22:10:26.525Z,4.20
2018-08-17T22:12:55.400Z,3.70
2018-08-17T22:15:27.841Z,4.13
2018-08-17T22:17:56.740Z,3.80
2018-08-17T22:20:25.833Z,4.13
2018-08-17T22:22:54.733Z,4.20
2018-08-17T22:25:23.596Z,3.43
2018-08-17T22:27:52.534Z,3.50
2018-08-17T22:30:24.325Z,3.70
2018-08-17T22:32:54.517Z,3.20
2018-08-17T22:35:23.464Z,3.60
2018-08-17T22:37:52.348Z,3.43
2018-08-17T22:40:21.187Z,3.70
2018-08-17T22:42:50.897Z,3.67
2018-08-17T22:45:19.828Z,3.37
2018-08-17T22:47:48.713Z,3.80
2018-08-17T22:50:17.588Z,4.03
2018-08-17T22:52:46.482Z,3.50
2018-08-17T22:55:15.347Z,3.30
2018-08-17T22:57:44.152Z,3.30
2018-08-17T23:00:23.518Z,3.20
2018-08-17T23:02:53.676Z,3.57
2018-08-17T23:05:24.550Z,3.50
2018-08-17T23:07:53.361Z,3.13
2018-08-17T23:10:23.936Z,3.30
2018-08-17T23:12:53.649Z,3.57
2018-08-17T23:15:22.496Z,3.10
2018-08-17T23:17:52.644Z,3.40
2018-08-17T23:20:26.928Z,3.77
2018-08-17T23:22:57.023Z,3.50
2018-08-17T23:25:25.902Z,3.30
2018-08-17T23:27:54.899Z,2.93
2018-08-17T23:30:24.427Z,3.43
2018-08-17T23:32:53.290Z,2.70
2018-08-17T23:35:22.192Z,3.30
2018-08-17T23:37:51.033Z,3.03
2018-08-17T23:40:19.896Z,3.07
2018-08-17T23:42:48.744Z,3.10
2018-08-17T23:45:18.193Z,3.50
2018-08-17T23:47:47.164Z,2.93
2018-08-17T23:50:16.696Z,3.90
2018-08-17T23:52:45.533Z,3.03
2018-08-17T23:55:16.724Z,3.13
2018-08-17T23:57:45.575Z,2.93
